VTBDVTUK

Guest
Details From VTBD - Bangkok Don Mueang Intl
To VTUK - Khon Kaen
Flight Number -
Tags generated
Created
Modified
Stats Distance 209 nm / 386 km
Max Altitude 21,600 ft / 6,584 m
Waypoints 4
Social Downloads 8
Likes 0
Share VATSIM

Download

Looking for another format? Having issues loading an existing format? Contact us
Advertisement - Login to hide

Notes

Basic altitude profile: - Ascent Rate: 2500ft/min - Ascent Speed: 250kts - Cruise Altitude: 35000ft - Cruise Speed: 420kts - Descent Rate: 1500ft/min - Descent Speed: 250kts Options: - Use NATs: yes - Use PACOTS: yes - Use low airways: yes - Use high airways: yes

Route

VTBD KRT W6 KKN VTUK

ID Type Via Altitude Latitude Longitude Leg Dist Tot Dist Heading (true) Name
O VTBD APT - 0 ft / 0 m 13.91260˚ 100.60680˚ - 0 nm - Bangkok Don Mueang Intl
KRT VOR - 21,600 ft / 6,584 m 14.91732˚ 102.13981˚ 107 nm 107 nm 56° / 56° KHORAT VOR-DME
KKN VOR W6 (AWY-LO) 6,500 ft / 1,981 m 16.47076˚ 102.78780˚ 100 nm 208 nm 22° / 22° KHON KAEN VOR-DME
O VTUK APT - 0 ft / 0 m 16.46663˚ 102.78366˚ 0 nm 208 nm 224° / 224° Khon Kaen

Altitude Profile

Advertisement - Login to hide

Weather


0- 5 10 15 20 25 30 35+ Temperature / ° C

Clouds and Precipitation
Forecast for 2017-12-18 00:00 UTC. Updated 25 minutes ago

Ground ~20,000 ft ~40,000 ft Winds

VTBD

Details ICAO VTBD (DMK)
Name Bangkok Don Mueang Intl
Region Thailand
Timezone Asia/Bangkok (UTC+7.0)
Stats Elevation 9 ft / 3 m (AMSL)
Location 13.912597° 100.606799°
Runways 2
Magnetic Variation 0.582° W

METAR

VTBD 171930Z 06004KT CAVOK 21/15 Q1017 NOSIG

Decode

TAF

TAF VTBD 171700Z 1718/1824 07008KT 9999 FEW040

Decode

Departure Runways

ID Width Length Bearing (true) Bearing (mag) Surface Threshold Offset Overrun Length
03L 197 ft / 60 m 12,186 ft / 3,714 m 28.55° 29.13° Asphalt 0 ft / 0 m 492 ft / 150 m
03R 148 ft / 45 m 11,520 ft / 3,511 m 28.50° 29.08° Asphalt 0 ft / 0 m 348 ft / 106 m
21L 148 ft / 45 m 11,520 ft / 3,511 m 208.50° 209.08° Asphalt 1,145 ft / 349 m 180 ft / 55 m
21R 197 ft / 60 m 12,186 ft / 3,714 m 208.55° 209.13° Asphalt 0 ft / 0 m 492 ft / 150 m

VTUK

Details ICAO VTUK (KKC)
Name Khon Kaen
Region Thailand
Timezone Asia/Bangkok (UTC+7.0)
Stats Elevation 670 ft / 204 m (AMSL)
Location 16.466628° 102.783663°
Runways 1
Magnetic Variation 0.807° W

METAR

VTUK 171900Z 08004KT 050V160 CAVOK 14/13 Q1021 NOSIG

Decode

TAF

TAF VTUK 171700Z 1718/1818 06005KT CAVOK BECMG 1801/1802 04010KT 9999 FEW045 BECMG 1811/1813 02005KT CAVOK

Decode

Destination Runways

ID Width Length Bearing (true) Bearing (mag) Surface Threshold Offset Overrun Length
03 148 ft / 45 m 10,043 ft / 3,061 m 32.69° 33.50° Asphalt 492 ft / 150 m 0 ft / 0 m
21 148 ft / 45 m 10,043 ft / 3,061 m 212.70° 213.51° Asphalt 492 ft / 150 m 0 ft / 0 m

Popular Alternatives